Time;durP1;ratioP1;P1;durP2;ratioP2;P2;SDS_P1;SDS_P2;PMS_P1;PMS_P2;Temp;Humidity;BMP_temperature;BMP_pressure;BME280_temperature;BME280_humidity;BME280_pressure;Samples;Min_cycle;Max_cycle;Signal;HPM_P1;HPM_P2
2021/07/03 00:00:07;;;;;;;13.90;7.78;;;19.50;97.90;;;;;;4866440;29;20053;-85
2021/07/03 00:02:36;;;;;;;13.77;6.05;;;19.90;98.00;;;;;;4857500;29;20054;-82
2021/07/03 00:05:06;;;;;;;14.52;6.45;;;19.90;98.60;;;;;;4861762;29;20057;-83
2021/07/03 00:07:34;;;;;;;16.08;6.32;;;19.80;98.70;;;;;;4865186;29;20057;-83
2021/07/03 00:10:05;;;;;;;16.83;7.78;;;19.80;99.10;;;;;;4870764;29;20063;-82
2021/07/03 00:12:34;;;;;;;;;;;19.80;99.30;;;;;;4870331;29;20046;-82
2021/07/03 00:15:06;;;;;;;11.73;5.72;;;19.70;99.90;;;;;;4841337;29;19924;-83
2021/07/03 00:17:35;;;;;;;19.02;8.23;;;19.60;99.80;;;;;;4841877;29;20060;-83
2021/07/03 00:20:07;;;;;;;16.77;7.38;;;19.70;99.90;;;;;;4869924;29;20064;-83
2021/07/03 00:22:36;;;;;;;12.93;6.80;;;19.40;99.90;;;;;;4855468;29;20054;-82
2021/07/03 00:25:06;;;;;;;11.88;5.80;;;19.40;99.90;;;;;;4869427;29;20250;-81
2021/07/03 00:27:36;;;;;;;13.68;6.53;;;19.30;99.90;;;;;;4854425;29;20057;-82
2021/07/03 00:30:06;;;;;;;11.50;5.72;;;19.20;99.90;;;;;;4859934;29;20559;-82
2021/07/03 00:32:34;;;;;;;12.02;5.50;;;19.20;99.90;;;;;;4857300;29;20057;-82
2021/07/03 00:35:05;;;;;;;10.63;5.38;;;19.10;99.90;;;;;;4874612;29;20064;-82
2021/07/03 00:37:33;;;;;;;12.50;5.22;;;19.00;99.90;;;;;;4853909;29;20057;-82
2021/07/03 00:40:03;;;;;;;10.90;5.70;;;19.00;99.90;;;;;;4873643;29;20061;-82
2021/07/03 00:42:32;;;;;;;11.20;6.03;;;18.90;99.90;;;;;;4873541;29;20056;-82
2021/07/03 00:45:02;;;;;;;12.63;6.55;;;18.90;99.90;;;;;;4872809;29;20050;-82
2021/07/03 00:47:30;;;;;;;14.70;6.68;;;18.80;99.90;;;;;;4871369;29;20053;-82
2021/07/03 00:49:59;;;;;;;10.20;6.50;;;18.80;99.90;;;;;;4872651;29;20064;-83
2021/07/03 00:52:32;;;;;;;13.50;5.63;;;18.70;99.90;;;;;;4835534;29;20072;-80
2021/07/03 00:55:01;;;;;;;12.85;5.90;;;18.60;99.90;;;;;;4853430;29;20053;-81
2021/07/03 00:57:31;;;;;;;11.52;5.82;;;18.60;99.90;;;;;;4859486;29;20052;-81
2021/07/03 01:00:02;;;;;;;7.85;4.13;;;18.60;99.90;;;;;;4871380;29;20514;-82
2021/07/03 01:02:30;;;;;;;;;;;18.50;99.90;;;;;;4836782;29;20145;-82
2021/07/03 01:04:58;;;;;;;9.63;4.80;;;18.50;99.90;;;;;;4852227;29;20366;-83
2021/07/03 01:07:33;;;;;;;12.52;4.85;;;18.50;99.90;;;;;;4852351;29;20068;-82
2021/07/03 01:10:18;;;;;;;10.40;5.27;;;18.50;99.90;;;;;;4822246;29;20066;-81
2021/07/03 01:12:51;;;;;;;12.27;5.45;;;18.50;99.90;;;;;;4830894;29;20499;-82
2021/07/03 01:15:21;;;;;;;9.10;4.75;;;18.50;99.90;;;;;;4872019;29;20049;-82
2021/07/03 01:17:53;;;;;;;9.50;4.63;;;17.30;99.90;;;;;;4870508;29;20500;-85
2021/07/03 01:20:25;;;;;;;10.98;4.45;;;18.40;99.90;;;;;;4871283;29;20052;-84
2021/07/03 01:22:55;;;;;;;8.80;4.97;;;18.40;99.90;;;;;;4870688;29;20057;-82
2021/07/03 01:25:25;;;;;;;9.47;5.87;;;18.40;99.90;;;;;;4855699;29;20060;-81
2021/07/03 01:28:04;;;;;;;9.82;4.95;;;18.30;99.90;;;;;;4870936;29;20053;-81
2021/07/03 01:30:38;;;;;;;13.68;6.47;;;18.30;99.90;;;;;;4854331;29;20050;-81
2021/07/03 01:33:06;;;;;;;11.38;5.03;;;18.30;99.90;;;;;;4839881;29;20064;-82
2021/07/03 01:35:35;;;;;;;9.48;5.32;;;18.20;99.90;;;;;;4864840;29;20053;-82
2021/07/03 01:38:20;;;;;;;13.00;6.63;;;18.20;99.90;;;;;;4853381;29;20068;-82
2021/07/03 01:40:53;;;;;;;12.55;6.53;;;18.20;99.90;;;;;;4852752;29;20057;-82
2021/07/03 01:43:28;;;;;;;11.32;6.30;;;18.20;99.90;;;;;;4852209;29;20045;-81
2021/07/03 01:46:00;;;;;;;13.77;6.35;;;18.10;99.90;;;;;;4851870;29;20050;-82
2021/07/03 01:48:35;;;;;;;10.02;6.30;;;18.10;99.90;;;;;;4861443;29;20053;-83
2021/07/03 01:51:11;;;;;;;11.93;7.15;;;18.00;99.90;;;;;;4870183;29;20057;-82
2021/07/03 01:53:39;;;;;;;15.27;7.15;;;18.00;99.90;;;;;;4854085;29;20053;-83
2021/07/03 01:56:09;;;;;;;12.55;6.15;;;18.00;99.90;;;;;;4853797;29;20046;-82
2021/07/03 01:58:39;;;;;;;13.25;6.88;;;18.00;99.90;;;;;;4868557;29;20089;-82
2021/07/03 02:01:25;;;;;;;11.35;5.70;;;17.90;99.90;;;;;;4871420;29;20069;-83
2021/07/03 02:03:55;;;;;;;12.10;6.35;;;17.90;99.90;;;;;;4871682;29;20062;-81
2021/07/03 02:06:34;;;;;;;15.15;7.68;;;17.90;99.90;;;;;;4857703;29;20046;-81
2021/07/03 02:09:02;;;;;;;12.30;6.15;;;17.90;99.90;;;;;;4872179;29;20057;-82
2021/07/03 02:11:30;;;;;;;13.60;7.43;;;17.90;99.90;;;;;;4872340;29;20046;-83
2021/07/03 02:14:11;;;;;;;17.45;8.68;;;17.90;99.90;;;;;;4871649;29;20052;-82
2021/07/03 02:16:51;;;;;;;16.17;8.48;;;17.80;99.90;;;;;;4871292;29;20055;-82
2021/07/03 02:19:20;;;;;;;18.88;8.35;;;17.80;99.90;;;;;;4872494;29;20056;-84
2021/07/03 02:21:50;;;;;;;17.83;9.17;;;17.80;99.90;;;;;;4862412;29;20045;-82
2021/07/03 02:24:26;;;;;;;21.63;9.10;;;17.80;99.90;;;;;;4852230;29;20056;-82
2021/07/03 02:26:55;;;;;;;31.80;9.63;;;17.70;99.90;;;;;;4856576;29;20056;-82
2021/07/03 02:29:24;;;;;;;19.35;9.25;;;17.70;99.90;;;;;;4871070;29;20252;-82
2021/07/03 02:31:53;;;;;;;20.00;9.43;;;17.70;99.90;;;;;;4863526;29;20393;-84
2021/07/03 02:34:24;;;;;;;17.75;8.98;;;17.50;99.90;;;;;;4853073;29;20049;-82
2021/07/03 02:36:54;;;;;;;21.48;10.75;;;17.60;99.90;;;;;;4863519;29;20054;-82
2021/07/03 02:39:24;;;;;;;19.00;8.27;;;17.50;99.90;;;;;;4840618;29;20061;-81
2021/07/03 02:41:53;;;;;;;17.85;9.10;;;17.50;99.90;;;;;;4837880;29;20061;-82
2021/07/03 02:44:23;;;;;;;14.60;6.88;;;17.40;99.90;;;;;;4822596;29;20061;-82
2021/07/03 02:46:53;;;;;;;13.25;7.35;;;17.50;99.90;;;;;;4852197;29;20053;-82
2021/07/03 02:49:22;;;;;;;12.77;6.85;;;17.50;99.90;;;;;;4838210;29;20054;-81
2021/07/03 02:51:53;;;;;;;14.80;7.68;;;17.50;99.90;;;;;;4863245;29;20060;-83
2021/07/03 02:54:24;;;;;;;11.27;7.00;;;17.50;99.90;;;;;;4871446;29;20065;-82
2021/07/03 02:56:57;;;;;;;17.58;8.13;;;17.50;99.90;;;;;;4826884;29;20061;-82
2021/07/03 02:59:28;;;;;;;15.93;9.32;;;17.50;99.90;;;;;;4857195;29;20058;-85
2021/07/03 03:02:00;;;;;;;22.75;9.80;;;17.50;99.90;;;;;;4844803;29;20054;-82
2021/07/03 03:04:29;;;;;;;14.95;8.25;;;17.50;99.90;;;;;;4839056;29;20057;-82
2021/07/03 03:06:57;;;;;;;18.83;9.95;;;17.60;99.90;;;;;;4839654;29;20052;-86
2021/07/03 03:09:29;;;;;;;14.65;7.65;;;17.40;99.90;;;;;;4854846;29;20064;-84
2021/07/03 03:12:00;;;;;;;17.93;9.10;;;17.60;99.90;;;;;;4839135;29;20050;-84
2021/07/03 03:14:28;;;;;;;18.73;8.95;;;17.60;99.90;;;;;;4854662;29;20053;-83
2021/07/03 03:16:57;;;;;;;19.23;8.45;;;17.60;99.90;;;;;;4852574;29;20060;-84
2021/07/03 03:19:25;;;;;;;13.45;8.07;;;18.30;99.90;;;;;;4838205;29;20079;-83
2021/07/03 03:21:53;;;;;;;16.23;8.13;;;17.60;99.90;;;;;;4837777;29;20060;-82
2021/07/03 03:24:25;;;;;;;14.25;6.80;;;17.60;99.90;;;;;;4866893;29;20066;-80
2021/07/03 03:26:55;;;;;;;13.35;6.78;;;17.60;99.90;;;;;;4852884;29;20048;-81
2021/07/03 03:29:25;;;;;;;11.48;6.32;;;17.60;99.90;;;;;;4854709;29;20046;-81
2021/07/03 03:31:56;;;;;;;14.35;8.15;;;17.50;99.90;;;;;;4831586;29;20069;-82
2021/07/03 03:34:25;;;;;;;15.40;7.63;;;17.50;99.90;;;;;;4854773;29;20060;-82
2021/07/03 03:36:55;;;;;;;13.80;8.70;;;17.60;99.90;;;;;;4853572;29;20050;-80
2021/07/03 03:39:26;;;;;;;14.77;7.15;;;17.60;99.90;;;;;;4868216;29;20072;-85
2021/07/03 03:41:55;;;;;;;15.30;6.68;;;17.60;99.90;;;;;;4862065;29;20057;-81
2021/07/03 03:44:24;;;;;;;14.77;7.82;;;17.60;99.90;;;;;;4855619;29;20057;-80
2021/07/03 03:46:53;;;;;;;14.00;7.40;;;17.70;99.90;;;;;;4872708;29;20060;-86
2021/07/03 03:49:27;;;;;;;20.75;9.50;;;17.70;99.90;;;;;;4872788;29;20053;-81
2021/07/03 03:52:00;;;;;;;;;;;17.60;99.90;;;;;;4871915;29;20054;-82
2021/07/03 03:54:31;;;;;;;15.82;7.40;;;17.60;99.90;;;;;;4868656;29;19939;-82
2021/07/03 03:59:59;;;;;;;17.33;7.65;;;17.50;99.90;;;;;;4868693;29;20056;-83
2021/07/03 04:02:31;;;;;;;18.02;9.43;;;17.60;99.90;;;;;;4855052;29;20060;-82
2021/07/03 04:04:59;;;;;;;15.57;9.05;;;17.50;99.90;;;;;;4870690;29;20050;-85
2021/07/03 04:07:27;;;;;;;26.63;11.35;;;16.50;99.90;;;;;;4871661;29;20054;-82
2021/07/03 04:09:57;;;;;;;21.08;11.90;;;17.20;99.90;;;;;;4856370;29;20063;-83
2021/07/03 04:12:26;;;;;;;23.38;11.88;;;17.50;99.90;;;;;;4855902;29;20053;-83
2021/07/03 04:14:54;;;;;;;20.52;11.60;;;17.50;99.90;;;;;;4845868;29;20070;-83
2021/07/03 04:17:22;;;;;;;22.60;13.98;;;17.40;99.90;;;;;;4838010;29;20058;-82
2021/07/03 04:19:51;;;;;;;24.92;12.57;;;17.40;99.90;;;;;;4854519;29;20057;-83
2021/07/03 04:22:19;;;;;;;21.40;12.85;;;17.40;99.90;;;;;;4852792;29;20054;-82
2021/07/03 04:24:49;;;;;;;24.55;13.18;;;17.40;99.90;;;;;;4837720;29;20057;-82
2021/07/03 04:27:17;;;;;;;22.67;12.20;;;17.40;99.90;;;;;;4852771;29;20058;-82
2021/07/03 04:29:45;;;;;;;20.17;11.73;;;17.40;99.90;;;;;;4859179;29;20048;-81
2021/07/03 04:32:13;;;;;;;25.40;11.85;;;17.40;99.90;;;;;;4861260;29;20058;-83
2021/07/03 04:34:42;;;;;;;22.63;12.43;;;17.40;99.90;;;;;;4853836;29;20054;-83
2021/07/03 04:37:11;;;;;;;22.08;12.18;;;17.30;99.90;;;;;;4854736;29;20050;-82
2021/07/03 04:39:39;;;;;;;21.77;11.02;;;17.30;99.90;;;;;;4853876;29;20058;-82
2021/07/03 04:42:08;;;;;;;21.88;12.48;;;17.40;99.90;;;;;;4865598;29;20057;-81
2021/07/03 04:44:36;;;;;;;25.73;12.73;;;17.40;99.90;;;;;;4854973;29;20057;-82
2021/07/03 04:47:04;;;;;;;24.33;13.50;;;17.40;99.90;;;;;;4870443;29;20057;-81
2021/07/03 04:49:35;;;;;;;24.88;12.68;;;17.40;99.90;;;;;;4868364;29;20050;-81
2021/07/03 04:52:05;;;;;;;25.90;14.00;;;17.40;99.90;;;;;;4857431;29;20050;-81
2021/07/03 04:54:35;;;;;;;22.20;12.57;;;17.40;99.90;;;;;;4841756;29;20052;-81
2021/07/03 04:57:07;;;;;;;25.85;15.45;;;17.50;99.90;;;;;;4853934;29;20058;-83
2021/07/03 04:59:40;;;;;;;26.58;13.70;;;17.50;99.90;;;;;;4868642;29;20053;-81
2021/07/03 05:02:09;;;;;;;23.70;12.80;;;17.50;99.90;;;;;;4855194;29;20045;-83
2021/07/03 05:04:39;;;;;;;;;;;17.50;99.90;;;;;;4873512;29;20061;-81
2021/07/03 05:07:09;;;;;;;23.67;13.05;;;17.50;99.90;;;;;;4873677;29;19935;-81
2021/07/03 05:09:47;;;;;;;23.17;14.27;;;17.50;99.90;;;;;;4858839;29;20057;-83
2021/07/03 05:12:15;;;;;;;22.83;13.57;;;17.50;99.90;;;;;;4872870;29;20057;-85
2021/07/03 05:14:43;;;;;;;20.80;12.85;;;17.50;99.90;;;;;;4873133;29;20061;-83
2021/07/03 05:17:11;;;;;;;27.70;12.35;;;17.60;99.90;;;;;;4857128;29;20065;-81
2021/07/03 05:19:40;;;;;;;20.65;11.27;;;17.60;99.90;;;;;;4873148;29;20064;-81
2021/07/03 05:22:09;;;;;;;26.73;13.23;;;17.70;99.90;;;;;;4871880;29;20056;-81
2021/07/03 05:24:38;;;;;;;23.80;12.77;;;17.70;99.90;;;;;;4872931;29;20061;-82
2021/07/03 05:27:06;;;;;;;25.63;13.52;;;17.70;99.90;;;;;;4857599;29;20054;-81
2021/07/03 05:29:34;;;;;;;27.50;13.65;;;17.80;99.90;;;;;;4872815;29;20053;-82
2021/07/03 05:32:03;;;;;;;24.25;13.85;;;17.80;99.90;;;;;;4872562;29;20060;-81
2021/07/03 05:34:31;;;;;;;26.48;15.38;;;17.90;99.90;;;;;;4873117;29;20042;-82
2021/07/03 05:37:00;;;;;;;23.17;12.90;;;18.80;99.90;;;;;;4868631;29;20057;-83
2021/07/03 05:39:28;;;;;;;24.25;14.52;;;17.90;99.90;;;;;;4856528;29;20057;-81
2021/07/03 05:41:56;;;;;;;24.25;15.07;;;17.90;99.90;;;;;;4872399;29;20069;-82
2021/07/03 05:44:24;;;;;;;26.65;14.30;;;17.90;99.90;;;;;;4872431;29;20063;-82
2021/07/03 05:46:55;;;;;;;24.55;15.13;;;18.00;99.90;;;;;;4872513;29;20049;-82
2021/07/03 05:49:24;;;;;;;30.55;16.52;;;18.00;99.90;;;;;;4870986;29;20067;-82
2021/07/03 05:51:52;;;;;;;27.70;17.10;;;18.00;99.90;;;;;;4870966;29;20057;-82
2021/07/03 05:54:21;;;;;;;31.92;17.75;;;18.00;99.90;;;;;;4872914;29;20049;-82
2021/07/03 05:56:49;;;;;;;28.27;15.73;;;18.00;99.90;;;;;;4870216;29;20050;-82
2021/07/03 05:59:18;;;;;;;56.83;22.83;;;18.00;99.90;;;;;;4856540;29;20061;-82
2021/07/03 06:01:46;;;;;;;39.25;21.20;;;18.10;99.90;;;;;;4872360;29;20056;-82
2021/07/03 06:04:14;;;;;;;37.85;19.02;;;16.80;99.90;;;;;;4871667;29;20264;-83
2021/07/03 06:06:43;;;;;;;41.10;21.08;;;18.10;99.90;;;;;;4871143;29;20061;-82
2021/07/03 06:09:11;;;;;;;34.72;19.00;;;18.20;99.90;;;;;;4871217;29;20056;-82
2021/07/03 06:11:39;;;;;;;33.78;19.95;;;18.20;99.90;;;;;;4870103;29;20053;-83
2021/07/03 06:14:08;;;;;;;41.35;20.08;;;18.30;99.90;;;;;;4870421;29;20064;-82
2021/07/03 06:16:37;;;;;;;41.97;20.17;;;18.30;99.90;;;;;;4871247;29;20049;-82
2021/07/03 06:19:06;;;;;;;38.30;19.63;;;18.30;99.90;;;;;;4870790;29;20060;-80
2021/07/03 06:21:35;;;;;;;38.85;20.65;;;18.30;99.90;;;;;;4871490;29;20055;-82
2021/07/03 06:24:03;;;;;;;43.35;24.75;;;18.40;99.90;;;;;;4856417;29;20077;-81
2021/07/03 06:26:32;;;;;;;41.83;21.95;;;18.40;99.90;;;;;;4852373;29;20065;-82
2021/07/03 06:29:01;;;;;;;42.42;21.55;;;18.40;99.90;;;;;;4867549;29;20772;-82
2021/07/03 06:31:30;;;;;;;33.08;19.67;;;18.40;99.90;;;;;;4854784;29;20515;-81
2021/07/03 06:33:59;;;;;;;39.30;22.25;;;18.40;99.90;;;;;;4858089;29;20050;-82
2021/07/03 06:36:30;;;;;;;42.55;21.33;;;18.50;99.90;;;;;;4853816;29;20053;-82
2021/07/03 06:38:58;;;;;;;40.75;23.45;;;18.50;99.90;;;;;;4871485;29;20052;-81
2021/07/03 06:41:27;;;;;;;44.83;22.45;;;18.50;99.90;;;;;;4854579;29;20131;-81
2021/07/03 06:43:59;;;;;;;43.00;22.40;;;18.50;99.90;;;;;;4838239;29;20281;-82
2021/07/03 06:46:29;;;;;;;44.58;24.48;;;18.50;99.90;;;;;;4852639;29;20053;-82
2021/07/03 06:49:00;;;;;;;47.05;22.55;;;18.60;99.90;;;;;;4851798;29;20068;-81
2021/07/03 06:51:29;;;;;;;44.72;23.75;;;18.60;99.90;;;;;;4853549;29;20056;-82
2021/07/03 06:54:00;;;;;;;43.10;24.48;;;18.50;99.90;;;;;;4837091;29;20280;-81
2021/07/03 06:56:29;;;;;;;49.22;26.15;;;18.50;99.90;;;;;;4852515;29;20172;-82
2021/07/03 06:58:58;;;;;;;43.10;23.52;;;18.60;99.90;;;;;;4848265;29;20058;-80
2021/07/03 07:01:27;;;;;;;40.58;23.67;;;18.60;99.90;;;;;;4869987;29;20065;-82
2021/07/03 07:03:55;;;;;;;48.38;21.98;;;18.60;99.90;;;;;;4870764;29;20057;-81
2021/07/03 07:06:24;;;;;;;44.63;25.17;;;18.60;99.90;;;;;;4872577;29;20049;-81
2021/07/03 07:08:54;;;;;;;50.78;26.02;;;18.70;99.90;;;;;;4871310;29;20053;-82
2021/07/03 07:11:24;;;;;;;45.40;26.50;;;18.70;99.90;;;;;;4871886;29;20135;-81
2021/07/03 07:13:52;;;;;;;47.17;25.45;;;18.70;99.90;;;;;;4870940;29;20042;-83
2021/07/03 07:16:21;;;;;;;50.75;27.77;;;18.70;99.90;;;;;;4872609;29;20079;-82
2021/07/03 07:18:50;;;;;;;45.30;26.48;;;18.70;99.90;;;;;;4869075;29;20371;-82
2021/07/03 07:21:20;;;;;;;49.40;27.33;;;18.70;99.90;;;;;;4867196;29;20050;-80
2021/07/03 07:23:53;;;;;;;50.63;29.48;;;18.70;99.90;;;;;;4853816;29;20050;-83
2021/07/03 07:26:22;;;;;;;50.63;27.95;;;18.80;99.90;;;;;;4856566;29;20584;-82
2021/07/03 07:28:51;;;;;;;50.28;27.30;;;18.80;99.90;;;;;;4866354;29;20045;-85
2021/07/03 07:31:20;;;;;;;52.67;26.30;;;18.80;99.90;;;;;;4872689;29;20053;-83
2021/07/03 07:33:49;;;;;;;109.38;30.55;;;18.80;99.90;;;;;;4873187;29;20048;-82
2021/07/03 07:36:18;;;;;;;51.03;29.30;;;18.90;99.90;;;;;;4871348;29;20057;-83
2021/07/03 07:38:48;;;;;;;51.42;28.20;;;18.90;99.90;;;;;;4872257;29;20057;-82
2021/07/03 07:41:18;;;;;;;51.08;29.98;;;18.90;99.90;;;;;;4855523;29;20046;-83
2021/07/03 07:43:48;;;;;;;50.50;28.42;;;19.00;99.90;;;;;;4868806;29;20053;-81
2021/07/03 07:46:16;;;;;;;47.90;28.33;;;19.00;99.90;;;;;;4871367;29;20056;-83
2021/07/03 07:48:46;;;;;;;54.70;28.27;;;18.30;99.90;;;;;;4870860;29;20033;-81
2021/07/03 07:51:14;;;;;;;46.40;27.05;;;19.10;99.90;;;;;;4863318;29;20053;-80
2021/07/03 07:53:42;;;;;;;48.83;25.90;;;19.20;99.90;;;;;;4864016;29;20052;-81
2021/07/03 07:56:11;;;;;;;50.90;26.73;;;19.30;99.90;;;;;;4861205;29;20050;-82
2021/07/03 07:58:40;;;;;;;42.22;25.75;;;19.50;99.90;;;;;;4860867;29;20128;-82
2021/07/03 08:01:12;;;;;;;46.78;27.17;;;19.30;99.90;;;;;;4869637;29;20548;-81
2021/07/03 08:03:44;;;;;;;40.00;25.10;;;19.40;99.90;;;;;;4857926;29;20061;-83
2021/07/03 08:06:14;;;;;;;47.95;25.77;;;19.40;99.90;;;;;;4852811;29;20054;-82
2021/07/03 08:08:43;;;;;;;47.53;26.83;;;19.50;99.90;;;;;;4860682;29;20045;-82
2021/07/03 08:11:12;;;;;;;42.65;25.85;;;19.40;99.90;;;;;;4859583;29;20527;-83
2021/07/03 08:13:41;;;;;;;51.08;26.80;;;19.30;99.90;;;;;;4863119;29;20049;-81
2021/07/03 08:16:10;;;;;;;49.47;25.73;;;19.30;99.90;;;;;;4854252;29;20068;-81
2021/07/03 08:18:39;;;;;;;44.47;23.63;;;19.20;99.90;;;;;;4868404;29;20056;-80
2021/07/03 08:21:07;;;;;;;47.22;20.73;;;19.20;99.90;;;;;;4854270;29;20060;-83
2021/07/03 08:23:46;;;;;;;45.47;26.38;;;19.10;99.90;;;;;;4848677;29;20061;-85
2021/07/03 08:26:15;;;;;;;46.50;23.60;;;19.00;99.90;;;;;;4866060;29;20056;-82
2021/07/03 08:28:44;;;;;;;50.25;24.13;;;18.90;99.90;;;;;;4852170;29;20054;-82
2021/07/03 08:31:14;;;;;;;51.75;24.27;;;18.20;99.90;;;;;;4867164;29;20057;-82
2021/07/03 08:33:48;;;;;;;48.40;25.42;;;18.80;99.90;;;;;;4870857;29;20057;-81
2021/07/03 08:36:17;;;;;;;53.58;24.88;;;18.80;99.90;;;;;;4860264;29;20053;-81
2021/07/03 08:38:46;;;;;;;53.15;24.90;;;18.70;99.90;;;;;;4844969;29;20065;-81
2021/07/03 08:41:17;;;;;;;49.53;24.45;;;18.70;99.90;;;;;;4848221;29;20060;-81
2021/07/03 08:43:49;;;;;;;60.17;24.90;;;18.60;99.90;;;;;;4852260;29;20163;-82
2021/07/03 08:46:19;;;;;;;52.60;23.60;;;18.60;99.90;;;;;;4865930;29;20068;-82
2021/07/03 08:48:53;;;;;;;48.47;25.63;;;18.00;99.90;;;;;;4865389;29;20547;-81
2021/07/03 08:51:22;;;;;;;58.08;22.95;;;18.50;99.90;;;;;;4869079;29;20053;-84
2021/07/03 08:53:51;;;;;;;56.08;23.00;;;18.40;99.90;;;;;;4862115;29;20053;-82
2021/07/03 08:56:20;;;;;;;40.72;20.30;;;18.40;99.90;;;;;;4864088;29;20058;-83
2021/07/03 08:58:49;;;;;;;44.15;20.65;;;18.40;99.90;;;;;;4863609;29;20056;-82
2021/07/03 09:01:17;;;;;;;42.63;20.20;;;18.40;99.90;;;;;;4869089;29;21129;-81
2021/07/03 09:03:54;;;;;;;41.08;19.75;;;18.50;99.90;;;;;;4864769;29;20053;-81
2021/07/03 09:06:32;;;;;;;43.08;19.95;;;18.50;99.90;;;;;;4862680;29;20060;-82
2021/07/03 09:09:01;;;;;;;35.83;18.38;;;18.60;99.90;;;;;;4860103;29;20444;-81
2021/07/03 09:11:30;;;;;;;34.88;18.45;;;18.70;99.90;;;;;;4863358;29;20041;-81
2021/07/03 09:14:07;;;;;;;35.20;18.02;;;18.80;99.90;;;;;;4861620;29;20054;-82
2021/07/03 09:16:38;;;;;;;39.30;18.48;;;18.90;99.90;;;;;;4866331;29;20067;-81
2021/07/03 09:19:07;;;;;;;38.28;17.55;;;19.00;99.90;;;;;;4860119;29;20060;-81
2021/07/03 09:21:35;;;;;;;39.70;18.55;;;19.10;99.90;;;;;;4864709;29;20045;-81
2021/07/03 09:24:13;;;;;;;34.17;16.98;;;19.30;99.90;;;;;;4868280;29;20056;-80
2021/07/03 09:26:41;;;;;;;38.53;17.10;;;19.50;99.90;;;;;;4855042;29;20061;-82
2021/07/03 09:29:15;;;;;;;35.35;15.88;;;19.60;99.90;;;;;;4848527;29;20050;-82
2021/07/03 09:31:45;;;;;;;33.22;15.07;;;19.80;99.90;;;;;;4857495;29;20062;-81
2021/07/03 09:34:15;;;;;;;28.67;15.35;;;19.90;99.90;;;;;;4857545;29;20104;-82
2021/07/03 09:36:42;;;;;;;27.63;16.42;;;19.90;99.90;;;;;;4865419;29;20053;-81
2021/07/03 09:39:21;;;;;;;27.23;14.27;;;20.00;99.90;;;;;;4853219;29;20058;-80
2021/07/03 09:41:50;;;;;;;28.77;15.05;;;20.20;99.90;;;;;;4856658;29;20267;-80
2021/07/03 09:44:19;;;;;;;31.13;14.43;;;20.30;99.90;;;;;;4856838;29;20057;-81
2021/07/03 09:46:52;;;;;;;28.15;14.60;;;20.50;99.90;;;;;;4862213;29;20053;-81
2021/07/03 09:49:25;;;;;;;27.35;13.07;;;20.70;99.90;;;;;;4848462;29;20088;-81
2021/07/03 09:52:00;;;;;;;27.27;15.07;;;20.70;99.90;;;;;;4846959;29;20411;-80
2021/07/03 09:54:30;;;;;;;25.48;13.90;;;20.90;99.90;;;;;;4861579;29;20049;-83
2021/07/03 09:56:58;;;;;;;27.55;12.70;;;21.00;99.90;;;;;;4859683;29;20065;-82
2021/07/03 09:59:32;;;;;;;31.08;16.25;;;21.10;99.90;;;;;;4875815;29;20626;-81
2021/07/03 10:02:01;;;;;;;25.10;13.32;;;21.10;99.90;;;;;;4855759;29;20064;-80
2021/07/03 10:04:35;;;;;;;24.73;13.18;;;21.10;99.90;;;;;;4859668;29;20387;-82
2021/07/03 10:07:36;;;;;;;28.67;13.23;;;21.00;99.90;;;;;;4856075;29;20054;-82
2021/07/03 10:10:18;;;;;;;21.17;12.55;;;20.90;99.90;;;;;;4855031;29;20061;-82
2021/07/03 10:13:06;;;;;;;25.42;12.55;;;20.90;99.90;;;;;;4854991;29;20065;-82
2021/07/03 10:15:37;;;;;;;28.25;13.80;;;21.00;99.90;;;;;;4848943;29;20072;-82
2021/07/03 10:18:21;;;;;;;24.92;13.10;;;21.70;99.90;;;;;;4837157;29;20053;-81
2021/07/03 10:20:53;;;;;;;22.85;12.63;;;21.40;99.90;;;;;;4840980;29;20049;-80
2021/07/03 10:23:34;;;;;;;27.55;12.63;;;22.20;99.90;;;;;;4841858;29;20042;-81
2021/07/03 10:26:04;;;;;;;21.90;11.70;;;21.60;99.90;;;;;;4864110;29;20060;-80
2021/07/03 10:28:36;;;;;;;25.02;12.77;;;21.50;99.90;;;;;;4851110;29;20054;-81
2021/07/03 10:31:19;;;;;;;18.60;10.02;;;21.40;99.90;;;;;;4856491;29;20061;-81
2021/07/03 10:33:58;;;;;;;16.38;9.10;;;21.40;99.90;;;;;;4854918;29;20053;-80
2021/07/03 10:36:31;;;;;;;21.17;10.02;;;21.40;99.90;;;;;;4858123;29;20049;-82
2021/07/03 10:39:01;;;;;;;19.65;9.85;;;21.40;99.90;;;;;;4857481;29;20053;-80
2021/07/03 10:41:31;;;;;;;19.43;10.10;;;21.40;99.90;;;;;;4859603;29;20065;-80
2021/07/03 10:44:08;;;;;;;20.70;10.75;;;21.30;99.90;;;;;;4862941;29;20307;-79
2021/07/03 10:46:44;;;;;;;16.98;9.32;;;21.30;99.90;;;;;;4845515;29;20057;-80
2021/07/03 10:49:19;;;;;;;22.73;11.27;;;21.30;99.90;;;;;;4859511;29;20060;-79
2021/07/03 10:51:51;;;;;;;19.30;10.68;;;21.20;99.90;;;;;;4841171;29;20046;-78
2021/07/03 10:54:24;;;;;;;17.20;9.95;;;21.20;99.90;;;;;;4864112;29;20067;-81
2021/07/03 10:57:00;;;;;;;21.23;12.30;;;21.10;99.90;;;;;;4861103;29;20057;-79
2021/07/03 10:59:38;;;;;;;17.88;10.38;;;21.10;99.90;;;;;;4855263;29;20049;-80
2021/07/03 11:02:10;;;;;;;18.83;10.50;;;21.10;99.90;;;;;;4825371;29;20057;-80
2021/07/03 11:04:46;;;;;;;23.58;11.73;;;20.90;99.90;;;;;;4861721;29;20061;-81
2021/07/03 11:07:16;;;;;;;18.63;10.35;;;20.70;99.90;;;;;;4857296;29;20053;-78
2021/07/03 11:09:45;;;;;;;19.15;8.95;;;20.70;99.90;;;;;;4854092;29;20049;-80
2021/07/03 11:12:19;;;;;;;17.17;9.40;;;20.60;99.90;;;;;;4876326;29;20042;-80
2021/07/03 11:14:57;;;;;;;18.73;9.38;;;20.50;99.90;;;;;;4846953;29;20045;-80
2021/07/03 11:17:27;;;;;;;17.48;10.00;;;20.40;99.90;;;;;;4846019;29;20741;-80
2021/07/03 11:19:55;;;;;;;19.90;10.48;;;20.30;99.90;;;;;;4840102;29;20049;-79
2021/07/03 11:22:25;;;;;;;22.05;11.70;;;20.30;99.90;;;;;;4854066;29;20451;-79
2021/07/03 11:24:56;;;;;;;20.25;10.63;;;20.30;99.90;;;;;;4862992;29;20724;-82
2021/07/03 11:27:25;;;;;;;15.75;8.73;;;20.40;99.90;;;;;;4860579;29;20045;-82
2021/07/03 11:29:54;;;;;;;21.42;11.68;;;20.40;99.90;;;;;;4858782;29;20045;-80
2021/07/03 11:32:23;;;;;;;14.48;7.88;;;20.50;99.90;;;;;;4847718;29;20092;-80
2021/07/03 11:35:00;;;;;;;15.13;7.95;;;20.50;99.90;;;;;;4856237;29;20046;-79
2021/07/03 11:37:36;;;;;;;14.65;8.00;;;20.40;99.90;;;;;;4858801;29;20056;-79
2021/07/03 11:40:28;;;;;;;15.63;6.95;;;20.30;99.90;;;;;;4848689;29;20068;-80
2021/07/03 11:43:04;;;;;;;19.33;9.43;;;20.30;99.90;;;;;;4855714;29;20057;-80
2021/07/03 11:45:40;;;;;;;15.68;8.15;;;20.30;99.90;;;;;;4862099;29;20069;-80
2021/07/03 11:48:14;;;;;;;9.68;5.78;;;20.40;99.90;;;;;;4873991;29;20575;-79
2021/07/03 11:50:53;;;;;;;13.27;6.18;;;20.40;99.90;;;;;;4865247;29;20056;-79
2021/07/03 11:53:27;;;;;;;10.40;4.93;;;20.40;99.90;;;;;;4855970;29;20058;-80
2021/07/03 11:55:57;;;;;;;12.55;6.22;;;20.40;99.90;;;;;;4879298;29;20041;-81
2021/07/03 11:58:28;;;;;;;11.77;6.57;;;20.50;99.90;;;;;;4855423;29;20065;-79
2021/07/03 12:00:58;;;;;;;8.73;5.47;;;20.60;99.90;;;;;;4834539;29;20068;-80
2021/07/03 12:03:38;;;;;;;6.93;4.13;;;20.60;99.90;;;;;;4858621;29;20057;-81
2021/07/03 12:06:07;;;;;;;11.43;4.90;;;20.60;99.90;;;;;;4827360;29;20052;-80
2021/07/03 12:08:43;;;;;;;9.98;4.55;;;20.50;99.90;;;;;;4855184;29;20044;-80
2021/07/03 12:11:13;;;;;;;9.07;4.68;;;20.50;99.90;;;;;;4837518;29;20057;-81
2021/07/03 12:13:48;;;;;;;9.80;5.15;;;20.50;99.90;;;;;;4858566;29;20054;-80
2021/07/03 12:16:19;;;;;;;7.38;4.43;;;20.60;99.90;;;;;;4859619;29;20443;-80
2021/07/03 12:18:50;;;;;;;11.57;5.85;;;20.70;99.90;;;;;;4859476;29;20365;-80
2021/07/03 12:21:25;;;;;;;9.32;5.25;;;20.70;99.90;;;;;;4843592;29;20050;-80
2021/07/03 12:23:56;;;;;;;11.65;5.72;;;20.90;99.90;;;;;;4859487;29;20053;-81
2021/07/03 12:26:28;;;;;;;12.07;5.15;;;21.10;99.90;;;;;;4860939;29;20058;-80
2021/07/03 12:29:08;;;;;;;9.02;4.88;;;20.60;99.90;;;;;;4861899;29;20057;-79
2021/07/03 12:31:45;;;;;;;8.75;4.15;;;21.50;99.90;;;;;;4851381;29;20049;-80
2021/07/03 12:34:21;;;;;;;13.23;6.30;;;21.70;99.90;;;;;;4859354;29;20045;-81
2021/07/03 12:37:16;;;;;;;9.10;5.47;;;21.90;99.90;;;;;;4844661;29;20059;-81
2021/07/03 12:39:45;;;;;;;7.70;3.85;;;22.20;99.90;;;;;;4844939;29;20064;-80
2021/07/03 12:42:16;;;;;;;9.68;5.57;;;22.30;99.90;;;;;;4866008;29;20053;-79
2021/07/03 12:44:46;;;;;;;10.02;4.88;;;22.60;99.90;;;;;;4864877;29;20530;-81
2021/07/03 12:47:20;;;;;;;14.57;4.28;;;22.90;99.90;;;;;;4857402;29;20053;-81
2021/07/03 12:50:00;;;;;;;8.38;4.30;;;23.10;99.90;;;;;;4853693;29;20050;-79
2021/07/03 12:52:38;;;;;;;7.35;4.00;;;23.20;99.90;;;;;;4824952;29;20055;-81
2021/07/03 12:55:10;;;;;;;9.30;5.20;;;23.20;99.90;;;;;;4871430;29;20061;-79